sensor_id;sensor_type;location;lat;lon;timestamp;P1;durP1;ratioP1;P2;durP2;ratioP2
52266;SDS011;38223;50.940;4.034;2022-11-04T00:01:29;3.27;;;2.30;;
52266;SDS011;38223;50.940;4.034;2022-11-04T00:04:04;5.72;;;2.15;;
52266;SDS011;38223;50.940;4.034;2022-11-04T00:06:38;8.63;;;2.40;;
52266;SDS011;38223;50.940;4.034;2022-11-04T00:09:11;6.83;;;2.22;;
52266;SDS011;38223;50.940;4.034;2022-11-04T00:11:47;3.77;;;2.00;;
52266;SDS011;38223;50.940;4.034;2022-11-04T00:14:33;4.12;;;1.98;;
52266;SDS011;38223;50.940;4.034;2022-11-04T00:17:09;7.33;;;2.40;;
52266;SDS011;38223;50.940;4.034;2022-11-04T00:19:46;5.90;;;2.05;;
52266;SDS011;38223;50.940;4.034;2022-11-04T00:22:38;6.90;;;2.08;;
52266;SDS011;38223;50.940;4.034;2022-11-04T00:28:16;6.10;;;2.12;;
52266;SDS011;38223;50.940;4.034;2022-11-04T00:31:04;4.03;;;2.33;;
52266;SDS011;38223;50.940;4.034;2022-11-04T00:33:55;4.45;;;2.45;;
52266;SDS011;38223;50.940;4.034;2022-11-04T00:36:27;7.50;;;2.50;;
52266;SDS011;38223;50.940;4.034;2022-11-04T00:41:30;4.72;;;2.05;;
52266;SDS011;38223;50.940;4.034;2022-11-04T00:44:03;5.35;;;2.25;;
52266;SDS011;38223;50.940;4.034;2022-11-04T00:46:38;6.67;;;2.45;;
52266;SDS011;38223;50.940;4.034;2022-11-04T00:49:10;5.12;;;2.42;;
52266;SDS011;38223;50.940;4.034;2022-11-04T00:51:41;10.38;;;2.22;;
52266;SDS011;38223;50.940;4.034;2022-11-04T00:54:16;9.15;;;2.47;;
52266;SDS011;38223;50.940;4.034;2022-11-04T00:56:46;8.28;;;2.40;;
52266;SDS011;38223;50.940;4.034;2022-11-04T00:59:21;6.40;;;2.08;;
52266;SDS011;38223;50.940;4.034;2022-11-04T01:01:54;9.83;;;2.60;;
52266;SDS011;38223;50.940;4.034;2022-11-04T01:04:32;8.43;;;2.42;;
52266;SDS011;38223;50.940;4.034;2022-11-04T01:07:04;8.90;;;1.77;;
52266;SDS011;38223;50.940;4.034;2022-11-04T01:09:43;9.75;;;2.25;;
52266;SDS011;38223;50.940;4.034;2022-11-04T01:14:45;7.85;;;2.58;;
52266;SDS011;38223;50.940;4.034;2022-11-04T01:17:21;7.25;;;2.50;;
52266;SDS011;38223;50.940;4.034;2022-11-04T01:19:55;5.83;;;1.95;;
52266;SDS011;38223;50.940;4.034;2022-11-04T01:22:29;7.83;;;1.95;;
52266;SDS011;38223;50.940;4.034;2022-11-04T01:25:00;9.58;;;2.37;;
52266;SDS011;38223;50.940;4.034;2022-11-04T01:27:34;6.17;;;2.10;;
52266;SDS011;38223;50.940;4.034;2022-11-04T01:30:05;7.22;;;2.20;;
52266;SDS011;38223;50.940;4.034;2022-11-04T01:32:40;5.28;;;1.65;;
52266;SDS011;38223;50.940;4.034;2022-11-04T01:35:10;12.88;;;2.22;;
52266;SDS011;38223;50.940;4.034;2022-11-04T01:40:16;8.65;;;2.85;;
52266;SDS011;38223;50.940;4.034;2022-11-04T01:42:49;10.20;;;2.77;;
52266;SDS011;38223;50.940;4.034;2022-11-04T01:45:20;8.48;;;1.85;;
52266;SDS011;38223;50.940;4.034;2022-11-04T01:50:37;8.28;;;2.22;;
52266;SDS011;38223;50.940;4.034;2022-11-04T01:53:12;8.83;;;1.75;;
52266;SDS011;38223;50.940;4.034;2022-11-04T01:55:56;14.23;;;2.52;;
52266;SDS011;38223;50.940;4.034;2022-11-04T01:58:28;11.48;;;2.55;;
52266;SDS011;38223;50.940;4.034;2022-11-04T02:01:02;4.90;;;2.10;;
52266;SDS011;38223;50.940;4.034;2022-11-04T02:03:40;8.85;;;2.10;;
52266;SDS011;38223;50.940;4.034;2022-11-04T02:06:10;6.42;;;2.30;;
52266;SDS011;38223;50.940;4.034;2022-11-04T02:08:43;5.50;;;2.45;;
52266;SDS011;38223;50.940;4.034;2022-11-04T02:11:17;10.03;;;2.52;;
52266;SDS011;38223;50.940;4.034;2022-11-04T02:14:04;10.55;;;2.20;;
52266;SDS011;38223;50.940;4.034;2022-11-04T02:16:39;10.70;;;2.20;;
52266;SDS011;38223;50.940;4.034;2022-11-04T02:30:40;8.10;;;1.72;;
52266;SDS011;38223;50.940;4.034;2022-11-04T02:36:01;9.93;;;2.70;;
52266;SDS011;38223;50.940;4.034;2022-11-04T02:38:54;9.60;;;2.42;;
52266;SDS011;38223;50.940;4.034;2022-11-04T02:41:31;9.28;;;2.10;;
52266;SDS011;38223;50.940;4.034;2022-11-04T02:44:10;14.47;;;2.98;;
52266;SDS011;38223;50.940;4.034;2022-11-04T02:49:26;9.18;;;2.50;;
52266;SDS011;38223;50.940;4.034;2022-11-04T02:52:24;11.38;;;2.47;;
52266;SDS011;38223;50.940;4.034;2022-11-04T02:54:51;13.68;;;2.72;;
52266;SDS011;38223;50.940;4.034;2022-11-04T02:57:35;7.92;;;2.85;;
52266;SDS011;38223;50.940;4.034;2022-11-04T03:00:08;10.88;;;2.85;;
52266;SDS011;38223;50.940;4.034;2022-11-04T03:02:40;11.55;;;2.90;;
52266;SDS011;38223;50.940;4.034;2022-11-04T03:05:18;9.55;;;2.52;;
52266;SDS011;38223;50.940;4.034;2022-11-04T03:07:49;8.05;;;2.62;;
52266;SDS011;38223;50.940;4.034;2022-11-04T03:10:31;9.60;;;2.77;;
52266;SDS011;38223;50.940;4.034;2022-11-04T03:13:03;11.68;;;2.77;;
52266;SDS011;38223;50.940;4.034;2022-11-04T03:15:34;8.83;;;2.70;;
52266;SDS011;38223;50.940;4.034;2022-11-04T03:18:15;10.28;;;2.55;;
52266;SDS011;38223;50.940;4.034;2022-11-04T03:20:57;12.43;;;3.50;;
52266;SDS011;38223;50.940;4.034;2022-11-04T03:23:28;6.78;;;2.87;;
52266;SDS011;38223;50.940;4.034;2022-11-04T03:26:08;11.78;;;2.90;;
52266;SDS011;38223;50.940;4.034;2022-11-04T03:28:46;9.25;;;2.77;;
52266;SDS011;38223;50.940;4.034;2022-11-04T03:31:31;9.90;;;3.17;;
52266;SDS011;38223;50.940;4.034;2022-11-04T03:33:59;11.85;;;2.85;;
52266;SDS011;38223;50.940;4.034;2022-11-04T03:36:34;9.90;;;2.83;;
52266;SDS011;38223;50.940;4.034;2022-11-04T03:39:06;13.38;;;3.22;;
52266;SDS011;38223;50.940;4.034;2022-11-04T03:41:41;11.57;;;3.50;;
52266;SDS011;38223;50.940;4.034;2022-11-04T03:44:13;10.38;;;2.92;;
52266;SDS011;38223;50.940;4.034;2022-11-04T03:46:48;12.18;;;3.20;;
52266;SDS011;38223;50.940;4.034;2022-11-04T03:49:20;10.93;;;2.98;;
52266;SDS011;38223;50.940;4.034;2022-11-04T03:51:53;10.08;;;3.58;;
52266;SDS011;38223;50.940;4.034;2022-11-04T03:54:26;7.97;;;3.25;;
52266;SDS011;38223;50.940;4.034;2022-11-04T03:57:15;10.45;;;3.70;;
52266;SDS011;38223;50.940;4.034;2022-11-04T04:02:49;11.75;;;3.75;;
52266;SDS011;38223;50.940;4.034;2022-11-04T04:05:31;12.55;;;3.08;;
52266;SDS011;38223;50.940;4.034;2022-11-04T04:11:10;11.57;;;3.92;;
52266;SDS011;38223;50.940;4.034;2022-11-04T04:13:52;8.75;;;3.12;;
52266;SDS011;38223;50.940;4.034;2022-11-04T04:16:27;14.25;;;3.72;;
52266;SDS011;38223;50.940;4.034;2022-11-04T04:19:14;8.55;;;3.65;;
52266;SDS011;38223;50.940;4.034;2022-11-04T04:21:50;8.65;;;3.65;;
52266;SDS011;38223;50.940;4.034;2022-11-04T04:24:28;13.65;;;4.42;;
52266;SDS011;38223;50.940;4.034;2022-11-04T04:27:16;13.18;;;4.30;;
52266;SDS011;38223;50.940;4.034;2022-11-04T04:30:08;10.13;;;3.90;;
52266;SDS011;38223;50.940;4.034;2022-11-04T04:32:46;9.33;;;4.50;;
52266;SDS011;38223;50.940;4.034;2022-11-04T04:35:26;14.95;;;4.70;;
52266;SDS011;38223;50.940;4.034;2022-11-04T04:38:31;18.80;;;6.10;;
52266;SDS011;38223;50.940;4.034;2022-11-04T04:41:25;9.33;;;5.50;;
52266;SDS011;38223;50.940;4.034;2022-11-04T04:44:23;18.05;;;5.60;;
52266;SDS011;38223;50.940;4.034;2022-11-04T04:47:15;19.95;;;6.60;;
52266;SDS011;38223;50.940;4.034;2022-11-04T04:49:49;12.15;;;6.37;;
52266;SDS011;38223;50.940;4.034;2022-11-04T04:52:31;15.08;;;5.85;;
52266;SDS011;38223;50.940;4.034;2022-11-04T04:55:04;15.48;;;7.62;;
52266;SDS011;38223;50.940;4.034;2022-11-04T04:57:36;18.10;;;6.67;;
52266;SDS011;38223;50.940;4.034;2022-11-04T05:00:12;13.13;;;6.40;;
52266;SDS011;38223;50.940;4.034;2022-11-04T05:02:47;16.42;;;6.28;;
52266;SDS011;38223;50.940;4.034;2022-11-04T05:05:21;13.05;;;6.17;;
52266;SDS011;38223;50.940;4.034;2022-11-04T05:07:52;12.80;;;6.50;;
52266;SDS011;38223;50.940;4.034;2022-11-04T05:10:28;19.42;;;7.60;;
52266;SDS011;38223;50.940;4.034;2022-11-04T05:12:59;10.98;;;6.08;;
52266;SDS011;38223;50.940;4.034;2022-11-04T05:15:45;18.00;;;6.33;;
52266;SDS011;38223;50.940;4.034;2022-11-04T05:18:20;14.55;;;5.92;;
52266;SDS011;38223;50.940;4.034;2022-11-04T05:20:51;19.17;;;6.30;;
52266;SDS011;38223;50.940;4.034;2022-11-04T05:23:24;10.78;;;5.58;;
52266;SDS011;38223;50.940;4.034;2022-11-04T05:25:59;12.78;;;5.53;;
52266;SDS011;38223;50.940;4.034;2022-11-04T05:28:33;15.50;;;5.60;;
52266;SDS011;38223;50.940;4.034;2022-11-04T05:31:04;14.53;;;5.45;;
52266;SDS011;38223;50.940;4.034;2022-11-04T05:33:45;15.93;;;5.65;;
52266;SDS011;38223;50.940;4.034;2022-11-04T05:36:16;16.12;;;5.25;;
52266;SDS011;38223;50.940;4.034;2022-11-04T05:38:51;12.95;;;5.00;;
52266;SDS011;38223;50.940;4.034;2022-11-04T05:41:27;12.68;;;5.50;;
52266;SDS011;38223;50.940;4.034;2022-11-04T05:44:04;12.93;;;5.35;;
52266;SDS011;38223;50.940;4.034;2022-11-04T05:46:37;19.27;;;6.12;;
52266;SDS011;38223;50.940;4.034;2022-11-04T05:49:09;16.02;;;5.85;;
52266;SDS011;38223;50.940;4.034;2022-11-04T05:51:42;14.18;;;4.83;;
52266;SDS011;38223;50.940;4.034;2022-11-04T05:54:20;15.80;;;5.62;;
52266;SDS011;38223;50.940;4.034;2022-11-04T05:56:52;14.00;;;4.80;;
52266;SDS011;38223;50.940;4.034;2022-11-04T05:59:29;18.05;;;5.47;;
52266;SDS011;38223;50.940;4.034;2022-11-04T06:02:02;11.65;;;4.62;;
52266;SDS011;38223;50.940;4.034;2022-11-04T06:04:34;15.10;;;4.78;;
52266;SDS011;38223;50.940;4.034;2022-11-04T06:07:05;11.57;;;4.20;;
52266;SDS011;38223;50.940;4.034;2022-11-04T06:09:36;16.30;;;5.22;;
52266;SDS011;38223;50.940;4.034;2022-11-04T06:12:06;13.70;;;5.25;;
52266;SDS011;38223;50.940;4.034;2022-11-04T06:14:42;13.72;;;4.92;;
52266;SDS011;38223;50.940;4.034;2022-11-04T06:17:15;14.65;;;5.08;;
52266;SDS011;38223;50.940;4.034;2022-11-04T06:19:47;14.20;;;4.62;;
52266;SDS011;38223;50.940;4.034;2022-11-04T06:22:18;15.40;;;5.17;;
52266;SDS011;38223;50.940;4.034;2022-11-04T06:24:46;16.87;;;4.83;;
52266;SDS011;38223;50.940;4.034;2022-11-04T06:27:14;12.07;;;4.50;;
52266;SDS011;38223;50.940;4.034;2022-11-04T06:29:41;15.45;;;4.83;;
52266;SDS011;38223;50.940;4.034;2022-11-04T06:32:10;13.95;;;4.25;;
52266;SDS011;38223;50.940;4.034;2022-11-04T06:34:46;15.95;;;4.37;;
52266;SDS011;38223;50.940;4.034;2022-11-04T06:37:17;16.12;;;4.15;;
52266;SDS011;38223;50.940;4.034;2022-11-04T06:39:49;11.83;;;4.12;;
52266;SDS011;38223;50.940;4.034;2022-11-04T06:42:16;12.90;;;4.08;;
52266;SDS011;38223;50.940;4.034;2022-11-04T06:44:44;11.00;;;4.03;;
52266;SDS011;38223;50.940;4.034;2022-11-04T06:47:11;12.75;;;4.28;;
52266;SDS011;38223;50.940;4.034;2022-11-04T06:49:39;14.53;;;3.75;;
52266;SDS011;38223;50.940;4.034;2022-11-04T06:52:06;13.88;;;3.58;;
52266;SDS011;38223;50.940;4.034;2022-11-04T06:54:34;15.58;;;3.87;;
52266;SDS011;38223;50.940;4.034;2022-11-04T06:57:04;11.43;;;3.92;;
52266;SDS011;38223;50.940;4.034;2022-11-04T06:59:33;11.65;;;3.92;;
52266;SDS011;38223;50.940;4.034;2022-11-04T07:02:00;8.15;;;3.40;;
52266;SDS011;38223;50.940;4.034;2022-11-04T07:04:31;10.72;;;3.35;;
52266;SDS011;38223;50.940;4.034;2022-11-04T07:07:04;13.50;;;4.22;;
52266;SDS011;38223;50.940;4.034;2022-11-04T07:09:36;11.60;;;3.40;;
52266;SDS011;38223;50.940;4.034;2022-11-04T07:12:06;11.10;;;3.62;;
52266;SDS011;38223;50.940;4.034;2022-11-04T07:14:37;12.75;;;3.55;;
52266;SDS011;38223;50.940;4.034;2022-11-04T07:17:07;12.33;;;3.85;;
52266;SDS011;38223;50.940;4.034;2022-11-04T07:19:42;12.63;;;3.77;;
52266;SDS011;38223;50.940;4.034;2022-11-04T07:22:12;12.55;;;4.65;;
52266;SDS011;38223;50.940;4.034;2022-11-04T07:24:45;12.85;;;4.78;;
52266;SDS011;38223;50.940;4.034;2022-11-04T07:27:18;11.75;;;4.55;;
52266;SDS011;38223;50.940;4.034;2022-11-04T07:29:54;10.32;;;4.50;;
52266;SDS011;38223;50.940;4.034;2022-11-04T07:32:24;13.48;;;4.60;;
52266;SDS011;38223;50.940;4.034;2022-11-04T07:34:57;11.15;;;4.85;;
52266;SDS011;38223;50.940;4.034;2022-11-04T07:37:31;13.98;;;5.95;;
52266;SDS011;38223;50.940;4.034;2022-11-04T07:40:05;13.72;;;7.03;;
52266;SDS011;38223;50.940;4.034;2022-11-04T07:43:02;14.33;;;6.15;;
52266;SDS011;38223;50.940;4.034;2022-11-04T07:45:34;10.28;;;5.28;;
52266;SDS011;38223;50.940;4.034;2022-11-04T07:48:07;13.62;;;5.03;;
52266;SDS011;38223;50.940;4.034;2022-11-04T07:50:39;8.90;;;4.78;;
52266;SDS011;38223;50.940;4.034;2022-11-04T07:53:09;11.08;;;5.00;;
52266;SDS011;38223;50.940;4.034;2022-11-04T07:55:42;14.75;;;5.60;;
52266;SDS011;38223;50.940;4.034;2022-11-04T07:58:13;12.33;;;5.40;;
52266;SDS011;38223;50.940;4.034;2022-11-04T08:00:48;10.32;;;5.00;;
52266;SDS011;38223;50.940;4.034;2022-11-04T08:03:18;10.25;;;4.70;;
52266;SDS011;38223;50.940;4.034;2022-11-04T08:05:57;14.40;;;5.22;;
52266;SDS011;38223;50.940;4.034;2022-11-04T08:08:34;15.48;;;5.40;;
52266;SDS011;38223;50.940;4.034;2022-11-04T08:11:07;14.13;;;5.30;;
52266;SDS011;38223;50.940;4.034;2022-11-04T08:13:41;11.38;;;4.83;;
52266;SDS011;38223;50.940;4.034;2022-11-04T08:16:17;15.48;;;5.00;;
52266;SDS011;38223;50.940;4.034;2022-11-04T08:18:48;14.50;;;4.60;;
52266;SDS011;38223;50.940;4.034;2022-11-04T08:21:23;10.58;;;4.58;;
52266;SDS011;38223;50.940;4.034;2022-11-04T08:23:56;12.50;;;4.65;;
52266;SDS011;38223;50.940;4.034;2022-11-04T08:26:27;14.68;;;4.97;;
52266;SDS011;38223;50.940;4.034;2022-11-04T08:28:55;9.25;;;4.15;;
52266;SDS011;38223;50.940;4.034;2022-11-04T08:31:28;11.60;;;4.33;;
52266;SDS011;38223;50.940;4.034;2022-11-04T08:34:01;17.50;;;4.47;;
52266;SDS011;38223;50.940;4.034;2022-11-04T08:36:32;11.22;;;4.30;;
52266;SDS011;38223;50.940;4.034;2022-11-04T08:39:12;13.00;;;5.20;;
52266;SDS011;38223;50.940;4.034;2022-11-04T08:41:46;12.88;;;4.62;;
52266;SDS011;38223;50.940;4.034;2022-11-04T08:44:18;11.00;;;4.78;;
52266;SDS011;38223;50.940;4.034;2022-11-04T08:46:53;21.68;;;5.72;;
52266;SDS011;38223;50.940;4.034;2022-11-04T08:49:25;15.98;;;5.53;;
52266;SDS011;38223;50.940;4.034;2022-11-04T08:51:58;17.80;;;4.37;;
52266;SDS011;38223;50.940;4.034;2022-11-04T08:54:32;10.63;;;4.25;;
52266;SDS011;38223;50.940;4.034;2022-11-04T08:57:06;11.80;;;3.87;;
52266;SDS011;38223;50.940;4.034;2022-11-04T08:59:37;12.18;;;4.17;;
52266;SDS011;38223;50.940;4.034;2022-11-04T09:02:11;7.87;;;3.42;;
52266;SDS011;38223;50.940;4.034;2022-11-04T09:04:44;11.28;;;3.95;;
52266;SDS011;38223;50.940;4.034;2022-11-04T09:07:15;8.70;;;3.92;;
52266;SDS011;38223;50.940;4.034;2022-11-04T09:09:49;12.10;;;4.15;;
52266;SDS011;38223;50.940;4.034;2022-11-04T09:12:19;10.03;;;4.50;;
52266;SDS011;38223;50.940;4.034;2022-11-04T09:14:54;11.43;;;4.22;;
52266;SDS011;38223;50.940;4.034;2022-11-04T09:17:24;11.25;;;4.47;;
52266;SDS011;38223;50.940;4.034;2022-11-04T09:19:56;9.90;;;3.87;;
52266;SDS011;38223;50.940;4.034;2022-11-04T09:22:26;13.40;;;4.30;;
52266;SDS011;38223;50.940;4.034;2022-11-04T09:24:54;11.75;;;4.30;;
52266;SDS011;38223;50.940;4.034;2022-11-04T09:27:25;13.35;;;4.17;;
52266;SDS011;38223;50.940;4.034;2022-11-04T09:29:58;12.88;;;3.87;;
52266;SDS011;38223;50.940;4.034;2022-11-04T09:32:32;11.75;;;3.80;;
52266;SDS011;38223;50.940;4.034;2022-11-04T09:35:03;10.93;;;3.90;;
52266;SDS011;38223;50.940;4.034;2022-11-04T09:37:40;12.00;;;4.22;;
52266;SDS011;38223;50.940;4.034;2022-11-04T09:40:13;15.70;;;4.25;;
52266;SDS011;38223;50.940;4.034;2022-11-04T09:45:37;17.98;;;4.90;;
52266;SDS011;38223;50.940;4.034;2022-11-04T09:48:11;10.15;;;4.20;;
52266;SDS011;38223;50.940;4.034;2022-11-04T09:50:50;15.15;;;4.67;;
52266;SDS011;38223;50.940;4.034;2022-11-04T09:56:00;11.60;;;4.20;;
52266;SDS011;38223;50.940;4.034;2022-11-04T09:58:36;13.35;;;4.65;;
52266;SDS011;38223;50.940;4.034;2022-11-04T10:26:44;17.17;;;9.10;;
52266;SDS011;38223;50.940;4.034;2022-11-04T10:29:29;11.05;;;8.93;;
52266;SDS011;38223;50.940;4.034;2022-11-04T10:32:17;11.85;;;9.80;;
52266;SDS011;38223;50.940;4.034;2022-11-04T10:35:03;13.78;;;10.35;;
52266;SDS011;38223;50.940;4.034;2022-11-04T10:37:34;14.40;;;10.82;;
52266;SDS011;38223;50.940;4.034;2022-11-04T10:42:52;12.40;;;11.08;;
52266;SDS011;38223;50.940;4.034;2022-11-04T10:45:30;15.32;;;11.50;;
52266;SDS011;38223;50.940;4.034;2022-11-04T10:48:19;18.75;;;12.13;;
52266;SDS011;38223;50.940;4.034;2022-11-04T10:50:54;15.85;;;11.68;;
52266;SDS011;38223;50.940;4.034;2022-11-04T10:53:32;15.85;;;12.13;;
52266;SDS011;38223;50.940;4.034;2022-11-04T10:56:06;16.15;;;11.30;;
52266;SDS011;38223;50.940;4.034;2022-11-04T10:58:45;17.43;;;11.23;;
52266;SDS011;38223;50.940;4.034;2022-11-04T11:04:05;17.80;;;12.05;;
52266;SDS011;38223;50.940;4.034;2022-11-04T11:06:38;16.12;;;10.82;;
52266;SDS011;38223;50.940;4.034;2022-11-04T11:09:12;17.77;;;11.10;;
52266;SDS011;38223;50.940;4.034;2022-11-04T11:11:47;18.42;;;11.80;;
52266;SDS011;38223;50.940;4.034;2022-11-04T11:20:04;11.65;;;9.63;;
52266;SDS011;38223;50.940;4.034;2022-11-04T11:22:42;10.43;;;9.40;;
52266;SDS011;38223;50.940;4.034;2022-11-04T11:25:28;11.53;;;10.32;;
52266;SDS011;38223;50.940;4.034;2022-11-04T11:28:10;12.78;;;10.13;;
52266;SDS011;38223;50.940;4.034;2022-11-04T11:33:25;13.38;;;9.30;;
52266;SDS011;38223;50.940;4.034;2022-11-04T11:36:03;11.78;;;8.58;;
52266;SDS011;38223;50.940;4.034;2022-11-04T11:38:37;12.78;;;9.10;;
52266;SDS011;38223;50.940;4.034;2022-11-04T11:41:24;10.55;;;8.38;;
52266;SDS011;38223;50.940;4.034;2022-11-04T11:44:00;12.53;;;9.00;;
52266;SDS011;38223;50.940;4.034;2022-11-04T11:46:33;12.33;;;8.40;;
52266;SDS011;38223;50.940;4.034;2022-11-04T11:49:10;11.38;;;8.78;;
52266;SDS011;38223;50.940;4.034;2022-11-04T11:51:43;13.00;;;9.18;;
52266;SDS011;38223;50.940;4.034;2022-11-04T11:56:52;12.68;;;9.10;;
52266;SDS011;38223;50.940;4.034;2022-11-04T12:05:07;12.47;;;9.70;;
52266;SDS011;38223;50.940;4.034;2022-11-04T12:07:39;11.80;;;9.73;;
52266;SDS011;38223;50.940;4.034;2022-11-04T12:18:41;12.80;;;9.38;;
52266;SDS011;38223;50.940;4.034;2022-11-04T12:29:35;12.35;;;8.75;;
52266;SDS011;38223;50.940;4.034;2022-11-04T12:41:04;12.30;;;10.30;;
52266;SDS011;38223;50.940;4.034;2022-11-04T12:43:39;16.82;;;10.65;;
52266;SDS011;38223;50.940;4.034;2022-11-04T12:58:03;7.65;;;5.65;;
52266;SDS011;38223;50.940;4.034;2022-11-04T13:00:57;6.80;;;4.80;;
52266;SDS011;38223;50.940;4.034;2022-11-04T13:03:30;8.10;;;5.12;;
52266;SDS011;38223;50.940;4.034;2022-11-04T13:06:09;8.58;;;5.12;;
52266;SDS011;38223;50.940;4.034;2022-11-04T13:08:48;7.42;;;5.30;;
52266;SDS011;38223;50.940;4.034;2022-11-04T13:11:25;7.42;;;4.47;;
52266;SDS011;38223;50.940;4.034;2022-11-04T13:14:04;8.68;;;6.35;;
52266;SDS011;38223;50.940;4.034;2022-11-04T13:16:37;8.93;;;5.47;;
52266;SDS011;38223;50.940;4.034;2022-11-04T13:19:19;8.60;;;7.47;;
52266;SDS011;38223;50.940;4.034;2022-11-04T13:21:57;8.78;;;7.20;;
52266;SDS011;38223;50.940;4.034;2022-11-04T13:24:31;12.58;;;7.17;;
52266;SDS011;38223;50.940;4.034;2022-11-04T13:27:08;13.68;;;8.00;;
52266;SDS011;38223;50.940;4.034;2022-11-04T13:29:38;8.13;;;7.20;;
52266;SDS011;38223;50.940;4.034;2022-11-04T13:32:24;11.38;;;6.08;;
52266;SDS011;38223;50.940;4.034;2022-11-04T13:34:59;11.30;;;6.42;;
52266;SDS011;38223;50.940;4.034;2022-11-04T13:37:32;9.68;;;5.90;;
52266;SDS011;38223;50.940;4.034;2022-11-04T13:40:09;7.37;;;5.30;;
52266;SDS011;38223;50.940;4.034;2022-11-04T13:46:01;4.30;;;1.60;;
52266;SDS011;38223;50.940;4.034;2022-11-04T13:48:33;1.35;;;0.78;;
52266;SDS011;38223;50.940;4.034;2022-11-04T13:51:09;1.67;;;0.80;;
52266;SDS011;38223;50.940;4.034;2022-11-04T13:53:43;2.58;;;0.82;;
52266;SDS011;38223;50.940;4.034;2022-11-04T13:56:27;5.62;;;1.07;;
52266;SDS011;38223;50.940;4.034;2022-11-04T13:59:03;1.45;;;0.75;;
52266;SDS011;38223;50.940;4.034;2022-11-04T14:01:46;7.83;;;1.50;;
52266;SDS011;38223;50.940;4.034;2022-11-04T14:04:27;3.77;;;1.75;;
52266;SDS011;38223;50.940;4.034;2022-11-04T14:07:04;2.22;;;0.65;;
52266;SDS011;38223;50.940;4.034;2022-11-04T14:12:24;3.20;;;0.70;;
52266;SDS011;38223;50.940;4.034;2022-11-04T14:15:02;3.80;;;1.20;;
52266;SDS011;38223;50.940;4.034;2022-11-04T14:20:25;2.52;;;1.35;;
52266;SDS011;38223;50.940;4.034;2022-11-04T14:23:00;3.58;;;0.90;;
52266;SDS011;38223;50.940;4.034;2022-11-04T14:25:37;3.83;;;0.85;;
52266;SDS011;38223;50.940;4.034;2022-11-04T14:33:34;8.78;;;2.47;;
52266;SDS011;38223;50.940;4.034;2022-11-04T14:39:00;8.93;;;1.98;;
52266;SDS011;38223;50.940;4.034;2022-11-04T14:47:19;3.17;;;1.75;;
52266;SDS011;38223;50.940;4.034;2022-11-04T14:49:59;5.97;;;1.55;;
52266;SDS011;38223;50.940;4.034;2022-11-04T14:55:18;3.20;;;1.00;;
52266;SDS011;38223;50.940;4.034;2022-11-04T14:57:50;1.62;;;0.88;;
52266;SDS011;38223;50.940;4.034;2022-11-04T15:00:34;2.98;;;1.20;;
52266;SDS011;38223;50.940;4.034;2022-11-04T15:05:54;2.80;;;1.25;;
52266;SDS011;38223;50.940;4.034;2022-11-04T15:11:14;3.72;;;1.30;;
52266;SDS011;38223;50.940;4.034;2022-11-04T15:13:48;6.40;;;1.55;;
52266;SDS011;38223;50.940;4.034;2022-11-04T15:16:26;2.30;;;1.05;;
52266;SDS011;38223;50.940;4.034;2022-11-04T15:18:53;2.50;;;1.20;;
52266;SDS011;38223;50.940;4.034;2022-11-04T15:21:29;2.45;;;1.90;;
52266;SDS011;38223;50.940;4.034;2022-11-04T15:24:05;2.98;;;1.60;;
52266;SDS011;38223;50.940;4.034;2022-11-04T15:26:38;2.67;;;1.40;;
52266;SDS011;38223;50.940;4.034;2022-11-04T15:29:11;2.90;;;1.35;;
52266;SDS011;38223;50.940;4.034;2022-11-04T15:31:55;3.83;;;1.05;;
52266;SDS011;38223;50.940;4.034;2022-11-04T15:34:27;2.17;;;0.90;;
52266;SDS011;38223;50.940;4.034;2022-11-04T15:37:04;2.77;;;1.00;;
52266;SDS011;38223;50.940;4.034;2022-11-04T15:39:38;4.75;;;1.42;;
52266;SDS011;38223;50.940;4.034;2022-11-04T15:42:15;5.03;;;1.25;;
52266;SDS011;38223;50.940;4.034;2022-11-04T15:44:58;4.45;;;1.70;;
52266;SDS011;38223;50.940;4.034;2022-11-04T15:47:33;5.28;;;1.90;;
52266;SDS011;38223;50.940;4.034;2022-11-04T15:50:14;12.70;;;2.00;;
52266;SDS011;38223;50.940;4.034;2022-11-04T15:52:53;7.62;;;1.77;;
52266;SDS011;38223;50.940;4.034;2022-11-04T15:55:23;5.75;;;1.95;;
52266;SDS011;38223;50.940;4.034;2022-11-04T15:57:59;4.92;;;1.52;;
52266;SDS011;38223;50.940;4.034;2022-11-04T16:00:32;3.55;;;1.80;;
52266;SDS011;38223;50.940;4.034;2022-11-04T16:03:12;4.00;;;1.12;;
52266;SDS011;38223;50.940;4.034;2022-11-04T16:05:37;2.45;;;1.05;;
52266;SDS011;38223;50.940;4.034;2022-11-04T16:08:19;2.58;;;1.20;;
52266;SDS011;38223;50.940;4.034;2022-11-04T16:11:16;2.27;;;0.95;;
52266;SDS011;38223;50.940;4.034;2022-11-04T16:13:40;5.75;;;1.17;;
52266;SDS011;38223;50.940;4.034;2022-11-04T16:18:55;4.83;;;1.70;;
52266;SDS011;38223;50.940;4.034;2022-11-04T16:21:33;4.62;;;1.50;;
52266;SDS011;38223;50.940;4.034;2022-11-04T16:24:07;3.45;;;1.27;;
52266;SDS011;38223;50.940;4.034;2022-11-04T16:26:40;4.55;;;1.47;;
52266;SDS011;38223;50.940;4.034;2022-11-04T16:29:16;3.02;;;1.52;;
52266;SDS011;38223;50.940;4.034;2022-11-04T16:34:50;4.65;;;2.30;;
52266;SDS011;38223;50.940;4.034;2022-11-04T16:37:23;3.70;;;1.60;;
52266;SDS011;38223;50.940;4.034;2022-11-04T16:39:58;2.72;;;1.60;;
52266;SDS011;38223;50.940;4.034;2022-11-04T16:42:28;3.85;;;1.80;;
52266;SDS011;38223;50.940;4.034;2022-11-04T16:45:02;7.55;;;2.08;;
52266;SDS011;38223;50.940;4.034;2022-11-04T16:47:35;4.85;;;2.10;;
52266;SDS011;38223;50.940;4.034;2022-11-04T16:50:12;6.50;;;2.40;;
52266;SDS011;38223;50.940;4.034;2022-11-04T16:52:44;3.67;;;2.30;;
52266;SDS011;38223;50.940;4.034;2022-11-04T16:55:19;4.87;;;2.62;;
52266;SDS011;38223;50.940;4.034;2022-11-04T16:57:58;3.92;;;2.72;;
52266;SDS011;38223;50.940;4.034;2022-11-04T17:00:35;5.97;;;3.00;;
52266;SDS011;38223;50.940;4.034;2022-11-04T17:03:13;5.15;;;2.75;;
52266;SDS011;38223;50.940;4.034;2022-11-04T17:05:53;5.40;;;2.70;;
52266;SDS011;38223;50.940;4.034;2022-11-04T17:08:24;5.05;;;3.00;;
52266;SDS011;38223;50.940;4.034;2022-11-04T17:11:00;6.95;;;2.85;;
52266;SDS011;38223;50.940;4.034;2022-11-04T17:13:33;5.22;;;3.95;;
52266;SDS011;38223;50.940;4.034;2022-11-04T17:16:09;5.75;;;3.75;;
52266;SDS011;38223;50.940;4.034;2022-11-04T17:18:40;9.48;;;5.17;;
52266;SDS011;38223;50.940;4.034;2022-11-04T17:21:14;6.25;;;4.72;;
52266;SDS011;38223;50.940;4.034;2022-11-04T17:23:45;5.55;;;5.00;;
52266;SDS011;38223;50.940;4.034;2022-11-04T17:26:17;7.33;;;5.40;;
52266;SDS011;38223;50.940;4.034;2022-11-04T17:28:52;7.42;;;5.03;;
52266;SDS011;38223;50.940;4.034;2022-11-04T17:31:27;8.25;;;5.00;;
52266;SDS011;38223;50.940;4.034;2022-11-04T17:33:57;7.00;;;5.10;;
52266;SDS011;38223;50.940;4.034;2022-11-04T17:36:32;5.87;;;5.20;;
52266;SDS011;38223;50.940;4.034;2022-11-04T17:39:04;7.55;;;6.58;;
52266;SDS011;38223;50.940;4.034;2022-11-04T17:41:36;8.98;;;7.10;;
52266;SDS011;38223;50.940;4.034;2022-11-04T17:44:28;8.05;;;7.22;;
52266;SDS011;38223;50.940;4.034;2022-11-04T17:47:00;14.85;;;9.18;;
52266;SDS011;38223;50.940;4.034;2022-11-04T17:49:35;11.45;;;8.63;;
52266;SDS011;38223;50.940;4.034;2022-11-04T17:52:05;15.98;;;9.43;;
52266;SDS011;38223;50.940;4.034;2022-11-04T17:54:38;12.07;;;9.23;;
52266;SDS011;38223;50.940;4.034;2022-11-04T17:57:12;9.93;;;8.08;;
52266;SDS011;38223;50.940;4.034;2022-11-04T17:59:43;12.23;;;9.13;;
52266;SDS011;38223;50.940;4.034;2022-11-04T18:02:16;12.18;;;8.38;;
52266;SDS011;38223;50.940;4.034;2022-11-04T18:04:51;12.35;;;9.58;;
52266;SDS011;38223;50.940;4.034;2022-11-04T18:07:24;16.77;;;8.65;;
52266;SDS011;38223;50.940;4.034;2022-11-04T18:09:59;18.90;;;9.48;;
52266;SDS011;38223;50.940;4.034;2022-11-04T18:12:34;13.38;;;9.60;;